Estación Meteorológica Peña el Pijo (Robertgarden) [ 07/19/24 12:03:23 CEST ]

Fecha Hora Presion(HPa) Temp (°C) Humedad % Rocio (°C) Viento ( m/s) Direccion Lluvia 1Hora(mm) Lluvia 24H(mm) LLuvia Total(mm)
2011-Apr-01 01:01:17 1019.400 7.3 81 4.3         60.60
2011-Apr-01 02:01:16 1019.200 6.9 84 4.4         60.60
2011-Apr-01 03:01:16 1018.700 6.2 85 3.9         60.60
2011-Apr-01 04:01:13 1018.300 5.4 86 3.2         60.60
2011-Apr-01 05:01:17 1017.800 4.9 88 3.1         60.60
2011-Apr-01 06:01:14 1017.900 4.2 89 2.5         60.60
2011-Apr-01 07:01:16 1017.500 3.9 90 2.4         60.60
2011-Apr-01 08:01:15 1017.400 3.6 90 2.1         60.60
2011-Apr-01 09:01:49 1017.500 5.1 92 3.9         60.60
2011-Apr-01 10:01:52 1017.400 12.1 79 8.6         60.60
2011-Apr-01 11:01:57 1016.900 19.3 50 8.7         60.60
2011-Apr-01 12:01:57 1016.800 21.8 34 5.2         60.60
2011-Apr-01 13:01:50 1016.300 23.1 33 5.8 1.1 ESE     60.60
2011-Apr-01 14:01:19 1015.900 23.9 30 5.3         60.60
2011-Apr-01 15:01:13 1015.200 23.9 31 5.7         60.60
2011-Apr-01 16:01:14 1014.300 24.5 30 5.8         60.60
2011-Apr-01 17:01:14 1013.900 25.3 28 5.4         60.60
2011-Apr-01 18:01:14 1013.300 24.4 30 5.8         60.60
2011-Apr-01 19:01:14 1013.400 21.2 37 5.8         60.60
2011-Apr-01 20:01:17 1013.800 18.4 42 5.2         60.60
2011-Apr-01 21:01:16 1013.900 15.8 49 5.1         60.60
2011-Apr-01 22:01:16 1014.600 12.3 59 4.5         60.60
2011-Apr-01 23:01:17 1015.100 9.8 68 4.2         60.60

Temperatura Máxima:25°    Temperatura Mínima:
Presión Máxima:1019.400 Hpa    Presión Mínima:1013.300 Hpa


Volver